sensor_id;sensor_type;location;lat;lon;timestamp;P1;durP1;ratioP1;P2;durP2;ratioP2
19414;SDS011;9843;48.882;12.592;2023-03-23T00:01:06;10.83;;;8.33;;
19414;SDS011;9843;48.882;12.592;2023-03-23T00:03:36;9.67;;;7.87;;
19414;SDS011;9843;48.882;12.592;2023-03-23T00:06:03;17.40;;;7.43;;
19414;SDS011;9843;48.882;12.592;2023-03-23T00:08:31;26.03;;;12.87;;
19414;SDS011;9843;48.882;12.592;2023-03-23T00:10:58;14.57;;;9.27;;
19414;SDS011;9843;48.882;12.592;2023-03-23T00:13:28;13.00;;;9.10;;
19414;SDS011;9843;48.882;12.592;2023-03-23T00:15:55;22.13;;;8.70;;
19414;SDS011;9843;48.882;12.592;2023-03-23T00:18:23;11.27;;;8.40;;
19414;SDS011;9843;48.882;12.592;2023-03-23T00:20:52;9.30;;;8.37;;
19414;SDS011;9843;48.882;12.592;2023-03-23T00:23:20;24.20;;;9.67;;
19414;SDS011;9843;48.882;12.592;2023-03-23T00:25:48;11.07;;;8.90;;
19414;SDS011;9843;48.882;12.592;2023-03-23T00:28:16;9.57;;;8.47;;
19414;SDS011;9843;48.882;12.592;2023-03-23T00:30:49;14.23;;;9.87;;
19414;SDS011;9843;48.882;12.592;2023-03-23T00:33:21;18.40;;;9.43;;
19414;SDS011;9843;48.882;12.592;2023-03-23T00:35:48;11.70;;;9.23;;
19414;SDS011;9843;48.882;12.592;2023-03-23T00:38:18;10.07;;;8.40;;
19414;SDS011;9843;48.882;12.592;2023-03-23T00:40:45;12.97;;;9.47;;
19414;SDS011;9843;48.882;12.592;2023-03-23T00:43:13;10.07;;;8.30;;
19414;SDS011;9843;48.882;12.592;2023-03-23T00:45:41;12.03;;;10.70;;
19414;SDS011;9843;48.882;12.592;2023-03-23T00:48:09;12.10;;;8.13;;
19414;SDS011;9843;48.882;12.592;2023-03-23T00:50:37;10.30;;;9.07;;
19414;SDS011;9843;48.882;12.592;2023-03-23T00:53:04;12.00;;;10.70;;
19414;SDS011;9843;48.882;12.592;2023-03-23T00:55:32;12.17;;;8.33;;
19414;SDS011;9843;48.882;12.592;2023-03-23T00:58:00;15.73;;;10.10;;
19414;SDS011;9843;48.882;12.592;2023-03-23T01:00:27;15.10;;;10.10;;
19414;SDS011;9843;48.882;12.592;2023-03-23T01:02:54;12.27;;;9.30;;
19414;SDS011;9843;48.882;12.592;2023-03-23T01:05:21;12.27;;;9.63;;
19414;SDS011;9843;48.882;12.592;2023-03-23T01:07:49;11.07;;;9.53;;
19414;SDS011;9843;48.882;12.592;2023-03-23T01:10:16;14.93;;;10.83;;
19414;SDS011;9843;48.882;12.592;2023-03-23T01:12:45;19.80;;;11.43;;
19414;SDS011;9843;48.882;12.592;2023-03-23T01:15:13;9.23;;;8.23;;
19414;SDS011;9843;48.882;12.592;2023-03-23T01:17:41;10.07;;;9.07;;
19414;SDS011;9843;48.882;12.592;2023-03-23T01:20:08;11.47;;;10.37;;
19414;SDS011;9843;48.882;12.592;2023-03-23T01:22:35;12.23;;;9.80;;
19414;SDS011;9843;48.882;12.592;2023-03-23T01:25:02;13.63;;;9.50;;
19414;SDS011;9843;48.882;12.592;2023-03-23T01:27:30;12.40;;;11.07;;
19414;SDS011;9843;48.882;12.592;2023-03-23T01:29:58;12.23;;;10.83;;
19414;SDS011;9843;48.882;12.592;2023-03-23T01:32:25;11.77;;;10.40;;
19414;SDS011;9843;48.882;12.592;2023-03-23T01:34:52;10.93;;;9.67;;
19414;SDS011;9843;48.882;12.592;2023-03-23T01:37:19;12.07;;;10.60;;
19414;SDS011;9843;48.882;12.592;2023-03-23T01:39:51;11.13;;;10.03;;
19414;SDS011;9843;48.882;12.592;2023-03-23T01:42:18;16.20;;;11.00;;
19414;SDS011;9843;48.882;12.592;2023-03-23T01:47:32;13.53;;;11.57;;
19414;SDS011;9843;48.882;12.592;2023-03-23T01:50:00;11.37;;;9.77;;
19414;SDS011;9843;48.882;12.592;2023-03-23T01:52:27;20.40;;;12.27;;
19414;SDS011;9843;48.882;12.592;2023-03-23T01:54:55;12.70;;;11.47;;
19414;SDS011;9843;48.882;12.592;2023-03-23T01:57:23;11.67;;;10.53;;
19414;SDS011;9843;48.882;12.592;2023-03-23T01:59:53;15.97;;;11.33;;
19414;SDS011;9843;48.882;12.592;2023-03-23T02:02:23;13.20;;;11.83;;
19414;SDS011;9843;48.882;12.592;2023-03-23T02:04:53;12.63;;;11.33;;
19414;SDS011;9843;48.882;12.592;2023-03-23T02:07:22;13.03;;;11.57;;
19414;SDS011;9843;48.882;12.592;2023-03-23T02:09:49;12.93;;;11.37;;
19414;SDS011;9843;48.882;12.592;2023-03-23T02:12:16;13.80;;;11.33;;
19414;SDS011;9843;48.882;12.592;2023-03-23T02:14:43;13.43;;;9.67;;
19414;SDS011;9843;48.882;12.592;2023-03-23T02:17:12;13.13;;;11.13;;
19414;SDS011;9843;48.882;12.592;2023-03-23T02:19:44;14.50;;;12.97;;
19414;SDS011;9843;48.882;12.592;2023-03-23T02:22:24;13.37;;;11.27;;
19414;SDS011;9843;48.882;12.592;2023-03-23T02:24:59;20.93;;;12.17;;
19414;SDS011;9843;48.882;12.592;2023-03-23T02:27:41;12.87;;;11.10;;
19414;SDS011;9843;48.882;12.592;2023-03-23T02:30:23;14.13;;;12.33;;
19414;SDS011;9843;48.882;12.592;2023-03-23T02:35:30;14.07;;;11.23;;
19414;SDS011;9843;48.882;12.592;2023-03-23T02:37:59;16.07;;;11.97;;
19414;SDS011;9843;48.882;12.592;2023-03-23T02:40:28;14.33;;;11.70;;
19414;SDS011;9843;48.882;12.592;2023-03-23T02:42:57;13.10;;;10.90;;
19414;SDS011;9843;48.882;12.592;2023-03-23T02:45:26;18.63;;;12.23;;
19414;SDS011;9843;48.882;12.592;2023-03-23T02:47:53;16.10;;;12.63;;
19414;SDS011;9843;48.882;12.592;2023-03-23T02:50:22;16.23;;;13.17;;
19414;SDS011;9843;48.882;12.592;2023-03-23T02:52:52;14.40;;;11.67;;
19414;SDS011;9843;48.882;12.592;2023-03-23T02:55:19;15.90;;;12.90;;
19414;SDS011;9843;48.882;12.592;2023-03-23T02:57:49;14.70;;;12.27;;
19414;SDS011;9843;48.882;12.592;2023-03-23T03:00:16;11.77;;;10.40;;
19414;SDS011;9843;48.882;12.592;2023-03-23T03:02:45;14.50;;;12.70;;
19414;SDS011;9843;48.882;12.592;2023-03-23T03:05:18;13.17;;;11.63;;
19414;SDS011;9843;48.882;12.592;2023-03-23T03:07:48;12.93;;;11.40;;
19414;SDS011;9843;48.882;12.592;2023-03-23T03:10:18;12.93;;;11.57;;
19414;SDS011;9843;48.882;12.592;2023-03-23T03:12:50;11.43;;;9.70;;
19414;SDS011;9843;48.882;12.592;2023-03-23T03:15:21;12.63;;;10.57;;
19414;SDS011;9843;48.882;12.592;2023-03-23T03:17:53;14.63;;;11.97;;
19414;SDS011;9843;48.882;12.592;2023-03-23T03:20:20;17.33;;;11.40;;
19414;SDS011;9843;48.882;12.592;2023-03-23T03:22:50;16.70;;;11.40;;
19414;SDS011;9843;48.882;12.592;2023-03-23T03:25:19;16.30;;;12.20;;
19414;SDS011;9843;48.882;12.592;2023-03-23T03:27:47;12.80;;;10.67;;
19414;SDS011;9843;48.882;12.592;2023-03-23T03:30:17;12.43;;;11.13;;
19414;SDS011;9843;48.882;12.592;2023-03-23T03:32:47;11.70;;;10.53;;
19414;SDS011;9843;48.882;12.592;2023-03-23T03:35:16;15.43;;;11.20;;
19414;SDS011;9843;48.882;12.592;2023-03-23T03:37:43;15.53;;;11.90;;
19414;SDS011;9843;48.882;12.592;2023-03-23T03:40:12;14.20;;;10.50;;
19414;SDS011;9843;48.882;12.592;2023-03-23T03:42:41;14.97;;;11.73;;
19414;SDS011;9843;48.882;12.592;2023-03-23T03:45:09;25.20;;;11.77;;
19414;SDS011;9843;48.882;12.592;2023-03-23T03:47:36;13.27;;;11.33;;
19414;SDS011;9843;48.882;12.592;2023-03-23T03:50:04;11.90;;;9.70;;
19414;SDS011;9843;48.882;12.592;2023-03-23T03:52:31;16.23;;;12.47;;
19414;SDS011;9843;48.882;12.592;2023-03-23T03:54:59;12.40;;;11.10;;
19414;SDS011;9843;48.882;12.592;2023-03-23T03:57:26;18.50;;;11.47;;
19414;SDS011;9843;48.882;12.592;2023-03-23T03:59:54;16.97;;;13.00;;
19414;SDS011;9843;48.882;12.592;2023-03-23T04:02:21;12.10;;;9.67;;
19414;SDS011;9843;48.882;12.592;2023-03-23T04:04:49;12.90;;;10.43;;
19414;SDS011;9843;48.882;12.592;2023-03-23T04:07:17;12.97;;;10.03;;
19414;SDS011;9843;48.882;12.592;2023-03-23T04:09:44;12.50;;;9.83;;
19414;SDS011;9843;48.882;12.592;2023-03-23T04:12:12;14.40;;;10.83;;
19414;SDS011;9843;48.882;12.592;2023-03-23T04:14:39;12.83;;;10.37;;
19414;SDS011;9843;48.882;12.592;2023-03-23T04:17:08;11.43;;;10.17;;
19414;SDS011;9843;48.882;12.592;2023-03-23T04:19:35;11.30;;;10.03;;
19414;SDS011;9843;48.882;12.592;2023-03-23T04:22:03;12.63;;;10.87;;
19414;SDS011;9843;48.882;12.592;2023-03-23T04:24:30;10.40;;;9.47;;
19414;SDS011;9843;48.882;12.592;2023-03-23T04:26:58;15.17;;;10.57;;
19414;SDS011;9843;48.882;12.592;2023-03-23T04:29:26;19.27;;;10.93;;
19414;SDS011;9843;48.882;12.592;2023-03-23T04:31:53;13.73;;;10.60;;
19414;SDS011;9843;48.882;12.592;2023-03-23T04:34:23;11.90;;;10.77;;
19414;SDS011;9843;48.882;12.592;2023-03-23T04:36:50;12.83;;;9.70;;
19414;SDS011;9843;48.882;12.592;2023-03-23T04:39:18;15.93;;;10.67;;
19414;SDS011;9843;48.882;12.592;2023-03-23T04:41:45;14.03;;;12.13;;
19414;SDS011;9843;48.882;12.592;2023-03-23T04:44:12;15.10;;;10.50;;
19414;SDS011;9843;48.882;12.592;2023-03-23T04:46:42;19.30;;;11.30;;
19414;SDS011;9843;48.882;12.592;2023-03-23T04:49:10;13.53;;;11.30;;
19414;SDS011;9843;48.882;12.592;2023-03-23T04:51:40;14.37;;;11.87;;
19414;SDS011;9843;48.882;12.592;2023-03-23T04:54:07;15.17;;;11.50;;
19414;SDS011;9843;48.882;12.592;2023-03-23T04:56:35;12.23;;;11.03;;
19414;SDS011;9843;48.882;12.592;2023-03-23T04:59:02;13.47;;;11.23;;
19414;SDS011;9843;48.882;12.592;2023-03-23T05:01:31;16.93;;;11.23;;
19414;SDS011;9843;48.882;12.592;2023-03-23T05:03:59;12.13;;;10.87;;
19414;SDS011;9843;48.882;12.592;2023-03-23T05:06:27;13.47;;;12.13;;
19414;SDS011;9843;48.882;12.592;2023-03-23T05:08:55;12.53;;;11.23;;
19414;SDS011;9843;48.882;12.592;2023-03-23T05:11:22;14.03;;;12.17;;
19414;SDS011;9843;48.882;12.592;2023-03-23T05:13:51;13.40;;;12.00;;
19414;SDS011;9843;48.882;12.592;2023-03-23T05:16:18;13.30;;;11.90;;
19414;SDS011;9843;48.882;12.592;2023-03-23T05:18:45;17.33;;;14.20;;
19414;SDS011;9843;48.882;12.592;2023-03-23T05:21:13;14.80;;;12.10;;
19414;SDS011;9843;48.882;12.592;2023-03-23T05:23:40;13.87;;;12.03;;
19414;SDS011;9843;48.882;12.592;2023-03-23T05:26:08;15.80;;;12.00;;
19414;SDS011;9843;48.882;12.592;2023-03-23T05:28:35;17.50;;;11.77;;
19414;SDS011;9843;48.882;12.592;2023-03-23T05:31:03;19.67;;;11.93;;
19414;SDS011;9843;48.882;12.592;2023-03-23T05:33:30;16.67;;;12.53;;
19414;SDS011;9843;48.882;12.592;2023-03-23T05:35:57;12.03;;;10.83;;
19414;SDS011;9843;48.882;12.592;2023-03-23T05:38:25;16.63;;;14.80;;
19414;SDS011;9843;48.882;12.592;2023-03-23T05:40:53;17.13;;;12.03;;
19414;SDS011;9843;48.882;12.592;2023-03-23T05:43:21;15.20;;;11.73;;
19414;SDS011;9843;48.882;12.592;2023-03-23T05:45:48;15.07;;;13.03;;
19414;SDS011;9843;48.882;12.592;2023-03-23T05:48:15;18.07;;;12.63;;
19414;SDS011;9843;48.882;12.592;2023-03-23T05:50:42;12.03;;;10.80;;
19414;SDS011;9843;48.882;12.592;2023-03-23T05:53:09;16.90;;;12.00;;
19414;SDS011;9843;48.882;12.592;2023-03-23T05:55:37;13.83;;;12.33;;
19414;SDS011;9843;48.882;12.592;2023-03-23T05:58:04;15.93;;;11.03;;
19414;SDS011;9843;48.882;12.592;2023-03-23T06:00:33;12.97;;;11.57;;
19414;SDS011;9843;48.882;12.592;2023-03-23T06:03:00;16.43;;;10.83;;
19414;SDS011;9843;48.882;12.592;2023-03-23T06:05:27;11.93;;;10.80;;
19414;SDS011;9843;48.882;12.592;2023-03-23T06:07:54;12.83;;;11.53;;
19414;SDS011;9843;48.882;12.592;2023-03-23T06:10:21;22.23;;;12.43;;
19414;SDS011;9843;48.882;12.592;2023-03-23T06:12:49;14.57;;;11.90;;
19414;SDS011;9843;48.882;12.592;2023-03-23T06:15:16;13.27;;;10.83;;
19414;SDS011;9843;48.882;12.592;2023-03-23T06:17:45;14.27;;;11.00;;
19414;SDS011;9843;48.882;12.592;2023-03-23T06:20:12;14.47;;;11.33;;
19414;SDS011;9843;48.882;12.592;2023-03-23T06:22:39;14.60;;;11.63;;
19414;SDS011;9843;48.882;12.592;2023-03-23T06:25:07;15.47;;;12.07;;
19414;SDS011;9843;48.882;12.592;2023-03-23T06:27:34;13.07;;;11.30;;
19414;SDS011;9843;48.882;12.592;2023-03-23T06:30:02;17.43;;;11.87;;
19414;SDS011;9843;48.882;12.592;2023-03-23T06:32:30;16.53;;;12.37;;
19414;SDS011;9843;48.882;12.592;2023-03-23T06:34:59;14.33;;;11.57;;
19414;SDS011;9843;48.882;12.592;2023-03-23T06:37:26;17.60;;;12.27;;
19414;SDS011;9843;48.882;12.592;2023-03-23T06:39:53;14.37;;;10.93;;
19414;SDS011;9843;48.882;12.592;2023-03-23T06:42:21;13.63;;;11.87;;
19414;SDS011;9843;48.882;12.592;2023-03-23T06:44:50;16.67;;;11.97;;
19414;SDS011;9843;48.882;12.592;2023-03-23T06:47:17;13.40;;;11.67;;
19414;SDS011;9843;48.882;12.592;2023-03-23T06:49:44;20.17;;;12.00;;
19414;SDS011;9843;48.882;12.592;2023-03-23T06:52:12;14.80;;;11.53;;
19414;SDS011;9843;48.882;12.592;2023-03-23T06:54:40;11.90;;;9.60;;
19414;SDS011;9843;48.882;12.592;2023-03-23T06:57:07;19.58;;;12.57;;
19414;SDS011;9843;48.882;12.592;2023-03-23T06:59:34;14.40;;;12.50;;
19414;SDS011;9843;48.882;12.592;2023-03-23T07:02:01;12.83;;;10.93;;
19414;SDS011;9843;48.882;12.592;2023-03-23T07:04:29;14.75;;;11.57;;
19414;SDS011;9843;48.882;12.592;2023-03-23T07:06:57;15.55;;;12.15;;
19414;SDS011;9843;48.882;12.592;2023-03-23T07:09:25;13.17;;;11.10;;
19414;SDS011;9843;48.882;12.592;2023-03-23T07:11:52;20.43;;;11.37;;
19414;SDS011;9843;48.882;12.592;2023-03-23T07:14:19;12.10;;;10.87;;
19414;SDS011;9843;48.882;12.592;2023-03-23T07:16:47;17.43;;;10.80;;
19414;SDS011;9843;48.882;12.592;2023-03-23T07:19:14;13.35;;;11.95;;
19414;SDS011;9843;48.882;12.592;2023-03-23T07:21:41;14.30;;;11.43;;
19414;SDS011;9843;48.882;12.592;2023-03-23T07:24:09;15.23;;;10.73;;
19414;SDS011;9843;48.882;12.592;2023-03-23T07:26:38;17.13;;;11.03;;
19414;SDS011;9843;48.882;12.592;2023-03-23T07:29:06;11.02;;;9.80;;
19414;SDS011;9843;48.882;12.592;2023-03-23T07:31:33;12.65;;;10.82;;
19414;SDS011;9843;48.882;12.592;2023-03-23T07:34:01;15.90;;;11.18;;
19414;SDS011;9843;48.882;12.592;2023-03-23T07:36:28;15.10;;;10.10;;
19414;SDS011;9843;48.882;12.592;2023-03-23T07:38:55;13.63;;;10.73;;
19414;SDS011;9843;48.882;12.592;2023-03-23T07:41:23;17.23;;;11.57;;
19414;SDS011;9843;48.882;12.592;2023-03-23T07:43:51;19.97;;;11.07;;
19414;SDS011;9843;48.882;12.592;2023-03-23T07:46:19;13.53;;;11.17;;
19414;SDS011;9843;48.882;12.592;2023-03-23T07:48:46;17.87;;;11.80;;
19414;SDS011;9843;48.882;12.592;2023-03-23T07:51:14;15.00;;;10.60;;
19414;SDS011;9843;48.882;12.592;2023-03-23T07:53:42;15.43;;;10.00;;
19414;SDS011;9843;48.882;12.592;2023-03-23T07:56:11;12.60;;;10.13;;
19414;SDS011;9843;48.882;12.592;2023-03-23T07:58:39;12.20;;;9.53;;
19414;SDS011;9843;48.882;12.592;2023-03-23T08:01:08;12.67;;;10.37;;
19414;SDS011;9843;48.882;12.592;2023-03-23T08:03:35;13.73;;;11.23;;
19414;SDS011;9843;48.882;12.592;2023-03-23T08:06:02;11.57;;;9.43;;
19414;SDS011;9843;48.882;12.592;2023-03-23T08:08:30;15.90;;;11.57;;
19414;SDS011;9843;48.882;12.592;2023-03-23T08:10:57;21.63;;;9.87;;
19414;SDS011;9843;48.882;12.592;2023-03-23T08:13:25;12.57;;;9.57;;
19414;SDS011;9843;48.882;12.592;2023-03-23T08:15:53;16.37;;;9.93;;
19414;SDS011;9843;48.882;12.592;2023-03-23T08:18:23;12.00;;;9.00;;
19414;SDS011;9843;48.882;12.592;2023-03-23T08:20:50;12.30;;;9.47;;
19414;SDS011;9843;48.882;12.592;2023-03-23T08:23:18;14.97;;;10.07;;
19414;SDS011;9843;48.882;12.592;2023-03-23T08:25:46;22.23;;;12.47;;
19414;SDS011;9843;48.882;12.592;2023-03-23T08:28:13;11.80;;;9.83;;
19414;SDS011;9843;48.882;12.592;2023-03-23T08:30:41;12.70;;;11.27;;
19414;SDS011;9843;48.882;12.592;2023-03-23T08:33:08;12.33;;;9.37;;
19414;SDS011;9843;48.882;12.592;2023-03-23T08:35:38;13.57;;;9.67;;
19414;SDS011;9843;48.882;12.592;2023-03-23T08:38:05;13.17;;;8.70;;
19414;SDS011;9843;48.882;12.592;2023-03-23T08:40:32;11.63;;;8.77;;
19414;SDS011;9843;48.882;12.592;2023-03-23T08:42:59;10.90;;;8.97;;
19414;SDS011;9843;48.882;12.592;2023-03-23T08:45:26;16.57;;;8.93;;
19414;SDS011;9843;48.882;12.592;2023-03-23T08:47:53;19.83;;;9.90;;
19414;SDS011;9843;48.882;12.592;2023-03-23T08:50:22;11.43;;;9.73;;
19414;SDS011;9843;48.882;12.592;2023-03-23T08:52:51;11.13;;;9.57;;
19414;SDS011;9843;48.882;12.592;2023-03-23T08:55:19;12.90;;;8.03;;
19414;SDS011;9843;48.882;12.592;2023-03-23T08:57:46;14.97;;;8.43;;
19414;SDS011;9843;48.882;12.592;2023-03-23T09:00:14;12.30;;;7.80;;
19414;SDS011;9843;48.882;12.592;2023-03-23T09:02:43;10.23;;;8.53;;
19414;SDS011;9843;48.882;12.592;2023-03-23T09:05:10;18.37;;;9.53;;
19414;SDS011;9843;48.882;12.592;2023-03-23T09:07:38;11.70;;;9.87;;
19414;SDS011;9843;48.882;12.592;2023-03-23T09:10:07;14.40;;;8.67;;
19414;SDS011;9843;48.882;12.592;2023-03-23T09:12:34;9.63;;;7.43;;
19414;SDS011;9843;48.882;12.592;2023-03-23T09:15:02;10.20;;;7.73;;
19414;SDS011;9843;48.882;12.592;2023-03-23T09:17:33;14.57;;;9.17;;
19414;SDS011;9843;48.882;12.592;2023-03-23T09:20:01;14.13;;;8.80;;
19414;SDS011;9843;48.882;12.592;2023-03-23T09:22:32;7.90;;;7.10;;
19414;SDS011;9843;48.882;12.592;2023-03-23T09:24:59;8.40;;;7.57;;
19414;SDS011;9843;48.882;12.592;2023-03-23T09:27:28;13.13;;;8.63;;
19414;SDS011;9843;48.882;12.592;2023-03-23T09:29:55;9.83;;;8.77;;
19414;SDS011;9843;48.882;12.592;2023-03-23T09:32:22;13.83;;;8.30;;
19414;SDS011;9843;48.882;12.592;2023-03-23T09:34:49;11.33;;;8.23;;
19414;SDS011;9843;48.882;12.592;2023-03-23T09:37:20;9.60;;;6.53;;
19414;SDS011;9843;48.882;12.592;2023-03-23T09:39:47;10.00;;;6.73;;
19414;SDS011;9843;48.882;12.592;2023-03-23T09:45:08;8.27;;;7.47;;
19414;SDS011;9843;48.882;12.592;2023-03-23T09:47:38;8.63;;;7.37;;
19414;SDS011;9843;48.882;12.592;2023-03-23T09:50:09;13.30;;;6.13;;
19414;SDS011;9843;48.882;12.592;2023-03-23T09:52:37;8.77;;;6.83;;
19414;SDS011;9843;48.882;12.592;2023-03-23T09:55:07;8.20;;;7.03;;
19414;SDS011;9843;48.882;12.592;2023-03-23T09:57:37;6.97;;;6.27;;
19414;SDS011;9843;48.882;12.592;2023-03-23T10:00:10;11.50;;;7.40;;
19414;SDS011;9843;48.882;12.592;2023-03-23T10:02:40;11.90;;;7.57;;
19414;SDS011;9843;48.882;12.592;2023-03-23T10:05:22;11.80;;;6.50;;
19414;SDS011;9843;48.882;12.592;2023-03-23T10:07:49;8.43;;;6.60;;
19414;SDS011;9843;48.882;12.592;2023-03-23T10:10:17;7.77;;;6.70;;
19414;SDS011;9843;48.882;12.592;2023-03-23T10:12:45;8.17;;;7.37;;
19414;SDS011;9843;48.882;12.592;2023-03-23T10:15:17;13.30;;;7.83;;
19414;SDS011;9843;48.882;12.592;2023-03-23T10:17:46;8.90;;;7.53;;
19414;SDS011;9843;48.882;12.592;2023-03-23T10:20:19;10.33;;;6.63;;
19414;SDS011;9843;48.882;12.592;2023-03-23T10:22:49;8.73;;;6.63;;
19414;SDS011;9843;48.882;12.592;2023-03-23T10:25:19;10.60;;;7.07;;
19414;SDS011;9843;48.882;12.592;2023-03-23T10:27:48;9.47;;;6.10;;
19414;SDS011;9843;48.882;12.592;2023-03-23T10:30:19;9.40;;;6.83;;
19414;SDS011;9843;48.882;12.592;2023-03-23T10:32:50;15.20;;;7.70;;
19414;SDS011;9843;48.882;12.592;2023-03-23T10:35:19;8.70;;;7.37;;
19414;SDS011;9843;48.882;12.592;2023-03-23T10:37:48;7.90;;;6.87;;
19414;SDS011;9843;48.882;12.592;2023-03-23T10:40:16;8.70;;;6.23;;
19414;SDS011;9843;48.882;12.592;2023-03-23T10:42:44;10.73;;;5.80;;
19414;SDS011;9843;48.882;12.592;2023-03-23T10:45:14;9.07;;;6.57;;
19414;SDS011;9843;48.882;12.592;2023-03-23T10:47:44;7.27;;;6.57;;
19414;SDS011;9843;48.882;12.592;2023-03-23T10:50:13;11.03;;;7.47;;
19414;SDS011;9843;48.882;12.592;2023-03-23T10:52:42;9.97;;;6.37;;
19414;SDS011;9843;48.882;12.592;2023-03-23T10:55:10;8.90;;;5.97;;
19414;SDS011;9843;48.882;12.592;2023-03-23T10:57:39;11.50;;;6.27;;
19414;SDS011;9843;48.882;12.592;2023-03-23T11:00:07;6.13;;;5.57;;
19414;SDS011;9843;48.882;12.592;2023-03-23T11:02:38;11.03;;;7.50;;
19414;SDS011;9843;48.882;12.592;2023-03-23T11:05:18;13.43;;;7.97;;
19414;SDS011;9843;48.882;12.592;2023-03-23T11:07:48;7.17;;;6.47;;
19414;SDS011;9843;48.882;12.592;2023-03-23T11:10:18;10.67;;;6.03;;
19414;SDS011;9843;48.882;12.592;2023-03-23T11:15:21;12.63;;;6.30;;
19414;SDS011;9843;48.882;12.592;2023-03-23T11:17:56;7.87;;;5.83;;
19414;SDS011;9843;48.882;12.592;2023-03-23T11:20:25;10.10;;;6.20;;
19414;SDS011;9843;48.882;12.592;2023-03-23T11:22:53;9.60;;;6.53;;
19414;SDS011;9843;48.882;12.592;2023-03-23T11:25:21;10.23;;;6.27;;
19414;SDS011;9843;48.882;12.592;2023-03-23T11:27:48;6.60;;;5.77;;
19414;SDS011;9843;48.882;12.592;2023-03-23T11:30:19;9.43;;;5.87;;
19414;SDS011;9843;48.882;12.592;2023-03-23T11:32:48;6.50;;;5.87;;
19414;SDS011;9843;48.882;12.592;2023-03-23T11:35:16;8.27;;;5.43;;
19414;SDS011;9843;48.882;12.592;2023-03-23T11:37:46;8.03;;;6.43;;
19414;SDS011;9843;48.882;12.592;2023-03-23T11:40:15;7.50;;;6.07;;
19414;SDS011;9843;48.882;12.592;2023-03-23T11:42:43;6.40;;;4.73;;
19414;SDS011;9843;48.882;12.592;2023-03-23T11:45:17;4.90;;;4.40;;
19414;SDS011;9843;48.882;12.592;2023-03-23T11:47:48;5.10;;;3.80;;
19414;SDS011;9843;48.882;12.592;2023-03-23T11:50:17;10.13;;;5.27;;
19414;SDS011;9843;48.882;12.592;2023-03-23T11:52:47;4.20;;;3.60;;
19414;SDS011;9843;48.882;12.592;2023-03-23T11:55:19;6.82;;;3.22;;
19414;SDS011;9843;48.882;12.592;2023-03-23T11:57:46;6.55;;;2.83;;
19414;SDS011;9843;48.882;12.592;2023-03-23T12:00:14;4.40;;;3.20;;
19414;SDS011;9843;48.882;12.592;2023-03-23T12:05:30;3.85;;;1.98;;
19414;SDS011;9843;48.882;12.592;2023-03-23T12:08:04;11.03;;;3.13;;
19414;SDS011;9843;48.882;12.592;2023-03-23T12:10:37;8.67;;;3.67;;
19414;SDS011;9843;48.882;12.592;2023-03-23T12:13:11;4.13;;;2.27;;
19414;SDS011;9843;48.882;12.592;2023-03-23T12:15:43;2.07;;;1.80;;
19414;SDS011;9843;48.882;12.592;2023-03-23T12:18:15;4.07;;;2.00;;
19414;SDS011;9843;48.882;12.592;2023-03-23T12:20:47;8.27;;;1.90;;
19414;SDS011;9843;48.882;12.592;2023-03-23T12:23:21;9.63;;;2.07;;
19414;SDS011;9843;48.882;12.592;2023-03-23T12:28:41;4.47;;;1.97;;
19414;SDS011;9843;48.882;12.592;2023-03-23T12:31:15;5.45;;;2.35;;
19414;SDS011;9843;48.882;12.592;2023-03-23T12:33:48;4.43;;;2.60;;
19414;SDS011;9843;48.882;12.592;2023-03-23T12:36:19;12.37;;;4.20;;
19414;SDS011;9843;48.882;12.592;2023-03-23T12:38:54;2.73;;;2.30;;
19414;SDS011;9843;48.882;12.592;2023-03-23T12:41:26;3.50;;;2.00;;
19414;SDS011;9843;48.882;12.592;2023-03-23T12:43:57;2.83;;;2.10;;
19414;SDS011;9843;48.882;12.592;2023-03-23T12:46:33;7.17;;;2.50;;
19414;SDS011;9843;48.882;12.592;2023-03-23T12:49:03;6.90;;;1.70;;
19414;SDS011;9843;48.882;12.592;2023-03-23T12:51:34;1.40;;;1.30;;
19414;SDS011;9843;48.882;12.592;2023-03-23T12:54:11;1.43;;;1.30;;
19414;SDS011;9843;48.882;12.592;2023-03-23T12:56:41;5.30;;;1.70;;
19414;SDS011;9843;48.882;12.592;2023-03-23T12:59:10;4.00;;;1.87;;
19414;SDS011;9843;48.882;12.592;2023-03-23T13:01:40;5.10;;;2.43;;
19414;SDS011;9843;48.882;12.592;2023-03-23T13:04:10;2.43;;;1.70;;
19414;SDS011;9843;48.882;12.592;2023-03-23T13:06:39;2.60;;;1.57;;
19414;SDS011;9843;48.882;12.592;2023-03-23T13:09:09;3.73;;;1.93;;
19414;SDS011;9843;48.882;12.592;2023-03-23T13:11:38;2.20;;;1.77;;
19414;SDS011;9843;48.882;12.592;2023-03-23T13:14:14;2.60;;;2.03;;
19414;SDS011;9843;48.882;12.592;2023-03-23T13:16:46;3.13;;;2.30;;
19414;SDS011;9843;48.882;12.592;2023-03-23T13:19:16;7.83;;;2.27;;
19414;SDS011;9843;48.882;12.592;2023-03-23T13:21:45;1.63;;;1.10;;
19414;SDS011;9843;48.882;12.592;2023-03-23T13:24:16;3.97;;;2.30;;
19414;SDS011;9843;48.882;12.592;2023-03-23T13:26:44;2.73;;;2.23;;
19414;SDS011;9843;48.882;12.592;2023-03-23T13:29:13;3.67;;;2.90;;
19414;SDS011;9843;48.882;12.592;2023-03-23T13:31:43;6.63;;;2.37;;
19414;SDS011;9843;48.882;12.592;2023-03-23T13:34:12;2.17;;;1.77;;
19414;SDS011;9843;48.882;12.592;2023-03-23T13:36:43;3.97;;;1.53;;
19414;SDS011;9843;48.882;12.592;2023-03-23T13:39:18;3.20;;;2.00;;
19414;SDS011;9843;48.882;12.592;2023-03-23T13:41:46;3.70;;;2.23;;
19414;SDS011;9843;48.882;12.592;2023-03-23T13:44:15;3.47;;;1.97;;
19414;SDS011;9843;48.882;12.592;2023-03-23T13:46:53;2.10;;;1.90;;
19414;SDS011;9843;48.882;12.592;2023-03-23T13:49:21;2.30;;;2.10;;
19414;SDS011;9843;48.882;12.592;2023-03-23T13:51:59;5.33;;;2.43;;
19414;SDS011;9843;48.882;12.592;2023-03-23T13:54:31;3.50;;;2.07;;
19414;SDS011;9843;48.882;12.592;2023-03-23T13:56:59;6.77;;;1.50;;
19414;SDS011;9843;48.882;12.592;2023-03-23T13:59:29;9.43;;;1.90;;
19414;SDS011;9843;48.882;12.592;2023-03-23T14:02:20;8.80;;;1.93;;
19414;SDS011;9843;48.882;12.592;2023-03-23T14:04:44;7.97;;;2.43;;
19414;SDS011;9843;48.882;12.592;2023-03-23T14:07:15;2.87;;;1.80;;
19414;SDS011;9843;48.882;12.592;2023-03-23T14:09:45;5.63;;;2.37;;
19414;SDS011;9843;48.882;12.592;2023-03-23T14:12:14;3.70;;;3.00;;
19414;SDS011;9843;48.882;12.592;2023-03-23T14:14:42;5.50;;;2.00;;
19414;SDS011;9843;48.882;12.592;2023-03-23T14:17:12;4.80;;;3.20;;
19414;SDS011;9843;48.882;12.592;2023-03-23T14:19:40;2.50;;;1.70;;
19414;SDS011;9843;48.882;12.592;2023-03-23T14:22:16;4.47;;;2.40;;
19414;SDS011;9843;48.882;12.592;2023-03-23T14:24:45;7.00;;;2.37;;
19414;SDS011;9843;48.882;12.592;2023-03-23T14:27:13;3.00;;;2.33;;
19414;SDS011;9843;48.882;12.592;2023-03-23T14:29:40;2.20;;;2.00;;
19414;SDS011;9843;48.882;12.592;2023-03-23T14:32:13;1.87;;;1.70;;
19414;SDS011;9843;48.882;12.592;2023-03-23T14:34:41;2.33;;;2.00;;
19414;SDS011;9843;48.882;12.592;2023-03-23T14:37:09;6.67;;;1.80;;
19414;SDS011;9843;48.882;12.592;2023-03-23T14:39:38;1.63;;;1.53;;
19414;SDS011;9843;48.882;12.592;2023-03-23T14:42:10;5.70;;;1.93;;
19414;SDS011;9843;48.882;12.592;2023-03-23T14:44:39;3.03;;;2.30;;
19414;SDS011;9843;48.882;12.592;2023-03-23T14:47:07;4.53;;;3.13;;
19414;SDS011;9843;48.882;12.592;2023-03-23T14:49:40;2.23;;;2.03;;
19414;SDS011;9843;48.882;12.592;2023-03-23T14:52:10;3.33;;;2.03;;
19414;SDS011;9843;48.882;12.592;2023-03-23T14:54:37;3.47;;;1.93;;
19414;SDS011;9843;48.882;12.592;2023-03-23T14:57:11;6.07;;;3.30;;
19414;SDS011;9843;48.882;12.592;2023-03-23T14:59:39;5.80;;;2.80;;